createdAt,value
2022-11-19T00:01:32.424Z,0.80
2022-11-19T00:07:34.345Z,0.90
2022-11-19T00:13:38.067Z,0.90
2022-11-19T00:19:39.942Z,0.90
2022-11-19T00:25:41.841Z,0.80
2022-11-19T00:31:43.782Z,0.80
2022-11-19T00:37:45.736Z,0.70
2022-11-19T00:43:47.979Z,0.60
2022-11-19T00:49:50.129Z,0.50
2022-11-19T00:55:52.023Z,0.40
2022-11-19T01:01:53.968Z,0.30
2022-11-19T01:07:55.899Z,0.30
2022-11-19T01:13:58.931Z,0.20
2022-11-19T01:20:00.845Z,0.20
2022-11-19T01:26:03.735Z,0.20
2022-11-19T01:32:05.802Z,0.20
2022-11-19T01:38:07.870Z,0.10
2022-11-19T01:45:01.088Z,0.00
2022-11-19T01:51:12.475Z,-0.10
2022-11-19T01:57:16.941Z,-0.20
2022-11-19T02:03:19.419Z,-0.30
2022-11-19T02:09:22.092Z,-0.30
2022-11-19T02:15:50.329Z,-0.30
2022-11-19T02:22:29.630Z,-0.30
2022-11-19T02:28:40.663Z,-0.30
2022-11-19T02:35:06.406Z,-0.30
2022-11-19T02:41:33.971Z,-0.40
2022-11-19T02:47:44.303Z,-0.40
2022-11-19T02:53:49.335Z,-0.50
2022-11-19T03:00:20.391Z,-0.60
2022-11-19T03:06:27.154Z,-0.80
2022-11-19T03:12:54.455Z,-0.90
2022-11-19T03:19:14.034Z,-1.00
2022-11-19T03:25:26.942Z,-1.10
2022-11-19T03:31:31.327Z,-1.30
2022-11-19T03:37:35.152Z,-1.40
2022-11-19T03:43:40.869Z,-1.50
2022-11-19T03:49:48.625Z,-1.60
2022-11-19T03:56:01.673Z,-1.70
2022-11-19T04:02:08.181Z,-1.60
2022-11-19T04:08:10.147Z,-1.50
2022-11-19T04:14:12.108Z,-1.50
2022-11-19T04:20:14.410Z,-1.50
2022-11-19T04:26:16.367Z,-1.60
2022-11-19T04:32:18.330Z,-1.60
2022-11-19T04:38:20.210Z,-1.70
2022-11-19T04:44:22.116Z,-1.70
2022-11-19T04:50:24.011Z,-1.60
2022-11-19T04:56:25.920Z,-1.60
2022-11-19T05:02:27.801Z,-1.60
2022-11-19T05:08:29.771Z,-1.60
2022-11-19T05:14:31.655Z,-1.60
2022-11-19T05:20:33.691Z,-1.70
2022-11-19T05:26:35.608Z,-1.80
2022-11-19T05:32:37.662Z,-1.80
2022-11-19T05:38:41.093Z,-1.80
2022-11-19T05:44:42.974Z,-2.10
2022-11-19T05:50:44.894Z,-2.30
2022-11-19T05:56:46.779Z,-2.50
2022-11-19T06:02:50.102Z,-2.60
2022-11-19T06:08:52.060Z,-2.70
2022-11-19T06:14:53.978Z,-2.70
2022-11-19T06:20:55.846Z,-2.70
2022-11-19T06:26:57.813Z,-2.70
2022-11-19T06:32:59.718Z,-2.70
2022-11-19T06:39:01.640Z,-2.70
2022-11-19T06:45:13.000Z,-2.80
2022-11-19T06:51:14.906Z,-2.80
2022-11-19T06:57:16.821Z,-2.80
2022-11-19T07:03:18.786Z,-2.80
2022-11-19T07:09:20.952Z,-2.90
2022-11-19T07:15:23.092Z,-2.80
2022-11-19T07:21:25.554Z,-2.80
2022-11-19T07:27:27.439Z,-2.60
2022-11-19T07:33:29.315Z,-2.60
2022-11-19T07:39:31.193Z,-2.60
2022-11-19T07:45:33.074Z,-2.70
2022-11-19T07:51:35.120Z,-2.70
2022-11-19T07:57:37.113Z,-2.70
2022-11-19T08:03:41.915Z,-2.70
2022-11-19T08:09:43.837Z,-2.80
2022-11-19T08:15:45.717Z,-2.80
2022-11-19T08:21:48.026Z,-2.80
2022-11-19T08:27:49.928Z,-2.60
2022-11-19T08:33:51.847Z,-2.40
2022-11-19T08:39:53.742Z,-2.30
2022-11-19T08:45:55.632Z,-2.20
2022-11-19T08:51:57.909Z,-2.00
2022-11-19T08:58:07.735Z,-1.70
2022-11-19T09:04:09.654Z,-1.50
2022-11-19T09:10:11.583Z,-1.30
2022-11-19T09:16:13.802Z,-1.00
2022-11-19T09:22:15.740Z,-0.70
2022-11-19T09:28:17.625Z,-0.50
2022-11-19T09:34:19.658Z,-0.40
2022-11-19T09:40:23.663Z,-0.30
2022-11-19T09:46:36.945Z,-0.30
2022-11-19T09:52:53.827Z,-0.40
2022-11-19T09:58:57.805Z,-0.20
2022-11-19T10:04:59.764Z,0.10
2022-11-19T10:11:07.411Z,0.40
2022-11-19T10:17:57.387Z,0.60
2022-11-19T10:24:21.469Z,0.70
2022-11-19T10:30:29.098Z,0.70
2022-11-19T10:37:02.815Z,0.60
2022-11-19T10:43:38.705Z,0.50
2022-11-19T10:49:42.634Z,0.30
2022-11-19T10:55:54.674Z,0.20
2022-11-19T11:02:03.881Z,0.20
2022-11-19T11:08:13.703Z,0.60
2022-11-19T11:14:40.988Z,1.20
2022-11-19T11:20:51.736Z,1.30
2022-11-19T11:27:25.144Z,1.20
2022-11-19T11:33:57.486Z,1.00
2022-11-19T11:40:00.078Z,1.10
2022-11-19T11:46:06.746Z,1.00
2022-11-19T11:52:11.574Z,1.00
2022-11-19T11:58:34.549Z,1.30
2022-11-19T12:04:36.522Z,1.40
2022-11-19T12:10:54.536Z,1.60
2022-11-19T12:16:56.704Z,1.90
2022-11-19T12:23:24.533Z,2.10
2022-11-19T12:29:40.839Z,2.30
2022-11-19T12:36:27.303Z,2.50
2022-11-19T12:42:53.800Z,3.30
2022-11-19T12:49:35.643Z,4.40
2022-11-19T12:56:23.791Z,4.30
2022-11-19T13:02:35.228Z,3.60
2022-11-19T13:08:49.431Z,3.00
2022-11-19T13:15:02.154Z,2.50
2022-11-19T13:21:44.247Z,2.50
2022-11-19T13:27:50.157Z,2.50
2022-11-19T13:34:00.116Z,3.80
2022-11-19T13:40:16.698Z,5.40
2022-11-19T13:46:47.424Z,5.50
2022-11-19T13:53:13.947Z,4.20
2022-11-19T13:59:45.806Z,3.80
2022-11-19T14:06:15.802Z,3.40
2022-11-19T14:12:32.584Z,3.20
2022-11-19T14:19:03.622Z,3.10
2022-11-19T14:25:27.592Z,2.90
2022-11-19T14:31:29.512Z,2.70
2022-11-19T14:37:37.318Z,2.00
2022-11-19T14:44:26.152Z,1.50
2022-11-19T14:50:30.053Z,1.00
2022-11-19T14:56:35.331Z,0.70
2022-11-19T15:02:40.817Z,0.20
2022-11-19T15:08:52.936Z,0.10
2022-11-19T15:15:07.025Z,-0.10
2022-11-19T15:21:21.774Z,-0.40
2022-11-19T15:27:53.975Z,-0.60
2022-11-19T15:35:10.473Z,-0.70
2022-11-19T15:41:20.546Z,-0.80
2022-11-19T15:47:39.323Z,-1.10
2022-11-19T15:54:03.135Z,-1.30
2022-11-19T16:00:06.042Z,-1.30
2022-11-19T16:06:30.756Z,-1.30
2022-11-19T16:12:51.790Z,-1.40
2022-11-19T16:18:53.686Z,-1.50
2022-11-19T16:25:01.977Z,-1.50
2022-11-19T16:31:05.207Z,-1.50
2022-11-19T16:37:19.249Z,-1.50
2022-11-19T16:43:22.639Z,-1.70
2022-11-19T16:49:30.113Z,-1.80
2022-11-19T16:55:33.956Z,-1.60
2022-11-19T17:01:36.053Z,-1.50
2022-11-19T17:07:38.844Z,-1.50
2022-11-19T17:13:40.770Z,-1.60
2022-11-19T17:19:42.645Z,-1.70
2022-11-19T17:26:04.476Z,-1.80
2022-11-19T17:32:06.427Z,-1.80
2022-11-19T17:38:30.052Z,-1.90
2022-11-19T17:44:35.633Z,-2.10
2022-11-19T17:50:37.516Z,-2.10
2022-11-19T17:56:39.551Z,-2.00
2022-11-19T18:02:41.485Z,-2.00
2022-11-19T18:08:44.060Z,-2.00
2022-11-19T18:14:47.682Z,-2.10
2022-11-19T18:20:55.451Z,-2.10
2022-11-19T18:27:00.910Z,-2.10
2022-11-19T18:33:03.128Z,-2.00
2022-11-19T18:39:05.033Z,-1.90
2022-11-19T18:45:07.770Z,-2.00
2022-11-19T18:51:12.315Z,-2.20
2022-11-19T18:57:14.470Z,-2.40
2022-11-19T19:03:16.459Z,-2.40
2022-11-19T19:09:20.372Z,-2.30
2022-11-19T19:15:22.742Z,-2.40
2022-11-19T19:21:24.919Z,-2.40
2022-11-19T19:27:26.919Z,-2.50
2022-11-19T19:33:29.301Z,-2.50
2022-11-19T19:39:31.194Z,-2.50
2022-11-19T19:45:36.665Z,-2.60
2022-11-19T19:51:39.707Z,-2.60
2022-11-19T19:57:41.620Z,-2.60
2022-11-19T20:03:44.648Z,-2.70
2022-11-19T20:09:46.571Z,-2.80
2022-11-19T20:15:48.576Z,-2.90
2022-11-19T20:21:52.207Z,-2.70
2022-11-19T20:27:54.142Z,-2.50
2022-11-19T20:34:01.737Z,-2.50
2022-11-19T20:40:03.908Z,-2.50
2022-11-19T20:46:09.139Z,-2.40
2022-11-19T20:52:11.104Z,-2.50
2022-11-19T20:58:13.001Z,-2.50
2022-11-19T21:04:14.988Z,-2.60
2022-11-19T21:10:17.061Z,-2.70
2022-11-19T21:16:23.232Z,-2.90
2022-11-19T21:22:25.134Z,-3.00
2022-11-19T21:28:27.219Z,-3.00
2022-11-19T21:34:29.121Z,-3.10
2022-11-19T21:40:31.135Z,-3.20
2022-11-19T21:46:33.934Z,-3.30
2022-11-19T21:52:35.838Z,-3.30
2022-11-19T21:58:37.885Z,-3.50
2022-11-19T22:04:39.829Z,-3.50
2022-11-19T22:10:45.472Z,-3.50
2022-11-19T22:16:47.920Z,-3.40
2022-11-19T22:22:49.830Z,-3.50
2022-11-19T22:28:51.846Z,-3.40
2022-11-19T22:34:53.731Z,-3.40
2022-11-19T22:41:09.574Z,-3.50
2022-11-19T22:47:11.445Z,-3.60
2022-11-19T22:53:16.045Z,-3.60
2022-11-19T22:59:26.951Z,-3.70
2022-11-19T23:05:31.942Z,-3.70
2022-11-19T23:11:56.536Z,-3.70
2022-11-19T23:17:58.452Z,-3.80
2022-11-19T23:24:01.091Z,-3.80
2022-11-19T23:30:03.326Z,-3.90
2022-11-19T23:36:24.599Z,-3.90
2022-11-19T23:42:26.558Z,-3.90
2022-11-19T23:48:39.591Z,-3.90
2022-11-19T23:54:41.479Z,-3.90
